createdAt,value
2018-08-25T00:00:26.307Z,19.55
2018-08-25T00:01:26.296Z,19.58
2018-08-25T00:02:26.283Z,19.55
2018-08-25T00:03:26.265Z,19.59
2018-08-25T00:04:26.254Z,19.63
2018-08-25T00:05:26.237Z,19.59
2018-08-25T00:06:26.224Z,19.63
2018-08-25T00:07:26.215Z,19.50
2018-08-25T00:08:26.200Z,19.55
2018-08-25T00:09:26.181Z,19.46
2018-08-25T00:10:26.169Z,19.50
2018-08-25T00:11:26.153Z,19.46
2018-08-25T00:12:26.146Z,19.51
2018-08-25T00:13:26.123Z,19.51
2018-08-25T00:14:26.111Z,19.55
2018-08-25T00:15:26.097Z,19.59
2018-08-25T00:16:26.084Z,19.59
2018-08-25T00:17:26.069Z,19.55
2018-08-25T00:18:26.058Z,19.62
2018-08-25T00:19:26.051Z,19.55
2018-08-25T00:20:26.031Z,19.46
2018-08-25T00:21:26.012Z,19.39
2018-08-25T00:22:26.000Z,19.32
2018-08-25T00:23:25.988Z,19.32
2018-08-25T00:24:25.977Z,19.29
2018-08-25T00:25:25.955Z,19.18
2018-08-25T00:26:25.942Z,19.11
2018-08-25T00:27:25.929Z,18.99
2018-08-25T00:28:25.913Z,18.92
2018-08-25T00:29:25.903Z,18.90
2018-08-25T00:30:25.892Z,18.87
2018-08-25T00:31:25.877Z,18.78
2018-08-25T00:32:25.858Z,18.70
2018-08-25T00:33:25.848Z,18.67
2018-08-25T00:34:25.830Z,18.58
2018-08-25T00:35:25.815Z,18.58
2018-08-25T00:36:25.802Z,18.51
2018-08-25T00:37:25.784Z,18.48
2018-08-25T00:38:25.772Z,18.42
2018-08-25T00:39:25.758Z,18.30
2018-08-25T00:40:25.746Z,18.36
2018-08-25T00:41:25.729Z,18.36
2018-08-25T00:42:25.716Z,18.35
2018-08-25T00:43:25.702Z,18.37
2018-08-25T00:44:25.691Z,18.30
2018-08-25T00:45:25.672Z,18.30
2018-08-25T00:46:25.656Z,18.36
2018-08-25T00:47:25.644Z,18.41
2018-08-25T00:48:25.635Z,18.33
2018-08-25T00:49:25.616Z,18.37
2018-08-25T00:50:25.600Z,18.32
2018-08-25T00:51:25.587Z,18.39
2018-08-25T00:52:25.572Z,18.41
2018-08-25T00:53:25.563Z,18.36
2018-08-25T00:54:25.544Z,18.25
2018-08-25T00:55:25.528Z,18.29
2018-08-25T00:56:25.514Z,18.23
2018-08-25T00:57:25.534Z,18.25
2018-08-25T00:58:25.486Z,18.26
2018-08-25T00:59:25.569Z,18.32
2018-08-25T01:00:25.456Z,18.17
2018-08-25T01:01:25.443Z,18.15
2018-08-25T01:02:25.427Z,18.21
2018-08-25T01:03:25.412Z,18.27
2018-08-25T01:04:25.414Z,18.10
2018-08-25T01:05:25.382Z,18.07
2018-08-25T01:06:25.368Z,18.05
2018-08-25T01:07:27.975Z,18.05
2018-08-25T01:08:25.346Z,18.10
2018-08-25T01:09:25.325Z,18.05
2018-08-25T01:10:25.309Z,17.93
2018-08-25T01:11:25.295Z,17.89
2018-08-25T01:12:25.280Z,17.90
2018-08-25T01:13:25.265Z,17.95
2018-08-25T01:14:25.254Z,17.95
2018-08-25T01:15:25.236Z,17.95
2018-08-25T01:16:25.222Z,17.87
2018-08-25T01:17:25.204Z,17.87
2018-08-25T01:18:25.198Z,17.87
2018-08-25T01:19:25.177Z,17.90
2018-08-25T01:20:25.168Z,17.90
2018-08-25T01:21:25.151Z,17.92
2018-08-25T01:22:25.133Z,17.90
2018-08-25T01:23:25.120Z,17.90
2018-08-25T01:24:25.109Z,17.86
2018-08-25T01:25:25.090Z,17.93
2018-08-25T01:26:25.074Z,17.87
2018-08-25T01:27:25.058Z,17.84
2018-08-25T01:28:25.043Z,17.87
2018-08-25T01:29:25.028Z,17.82
2018-08-25T01:30:25.015Z,17.81
2018-08-25T01:31:24.999Z,17.84
2018-08-25T01:32:24.987Z,17.89
2018-08-25T01:33:24.973Z,17.89
2018-08-25T01:34:24.957Z,17.93
2018-08-25T01:35:24.940Z,17.93
2018-08-25T01:36:24.922Z,17.95
2018-08-25T01:37:24.910Z,17.99
2018-08-25T01:38:24.895Z,18.03
2018-08-25T01:39:24.880Z,17.99
2018-08-25T01:40:24.867Z,18.08
2018-08-25T01:41:24.849Z,18.10
2018-08-25T01:42:24.834Z,18.02
2018-08-25T01:43:24.819Z,17.97
2018-08-25T01:44:24.806Z,18.07
2018-08-25T01:45:24.790Z,18.00
2018-08-25T01:46:24.774Z,18.05
2018-08-25T01:47:24.762Z,18.02
2018-08-25T01:48:24.744Z,18.08
2018-08-25T01:49:24.730Z,18.07
2018-08-25T01:50:24.719Z,18.02
2018-08-25T01:52:07.233Z,18.02
2018-08-25T01:53:07.214Z,18.03
2018-08-25T01:54:07.197Z,17.90
2018-08-25T01:55:07.182Z,18.00
2018-08-25T01:56:07.168Z,17.96
2018-08-25T01:57:07.154Z,17.89
2018-08-25T01:58:07.139Z,17.90
2018-08-25T01:59:07.122Z,17.82
2018-08-25T02:00:07.109Z,17.82
2018-08-25T02:01:07.095Z,17.84
2018-08-25T02:02:07.080Z,17.78
2018-08-25T02:03:07.063Z,17.81
2018-08-25T02:04:07.048Z,17.75
2018-08-25T02:05:07.034Z,17.82
2018-08-25T02:06:07.020Z,17.81
2018-08-25T02:07:07.003Z,17.64
2018-08-25T02:08:06.987Z,17.71
2018-08-25T02:09:06.973Z,17.58
2018-08-25T02:10:06.959Z,17.59
2018-08-25T02:11:06.941Z,17.49
2018-08-25T02:12:06.927Z,17.43
2018-08-25T02:13:06.914Z,17.49
2018-08-25T02:14:06.898Z,17.52
2018-08-25T02:15:06.882Z,17.37
2018-08-25T02:16:06.866Z,17.41
2018-08-25T02:17:06.850Z,17.38
2018-08-25T02:18:06.837Z,17.36
2018-08-25T02:19:06.821Z,17.30
2018-08-25T02:20:06.805Z,17.28
2018-08-25T02:21:06.790Z,17.28
2018-08-25T02:22:06.777Z,17.31
2018-08-25T02:23:06.759Z,17.28
2018-08-25T02:24:06.743Z,17.28
2018-08-25T02:25:06.730Z,17.33
2018-08-25T02:26:06.714Z,17.33
2018-08-25T02:27:06.703Z,17.28
2018-08-25T02:28:06.708Z,17.19
2018-08-25T02:29:06.670Z,17.16
2018-08-25T02:30:06.655Z,17.07
2018-08-25T02:31:06.637Z,17.08
2018-08-25T02:32:06.628Z,16.98
2018-08-25T02:33:06.615Z,16.97
2018-08-25T02:34:06.597Z,16.97
2018-08-25T02:35:06.577Z,16.97
2018-08-25T02:36:06.562Z,16.96
2018-08-25T02:37:06.549Z,17.00
2018-08-25T02:38:06.533Z,16.94
2018-08-25T02:39:06.516Z,16.91
2018-08-25T02:40:06.501Z,17.00
2018-08-25T02:41:06.487Z,17.07
2018-08-25T02:42:06.472Z,17.14
2018-08-25T02:43:06.455Z,17.07
2018-08-25T02:44:06.444Z,17.08
2018-08-25T02:45:06.425Z,17.15
2018-08-25T02:46:06.409Z,17.19
2018-08-25T02:47:06.393Z,17.18
2018-08-25T02:48:06.379Z,17.15
2018-08-25T02:49:06.371Z,17.12
2018-08-25T02:50:06.350Z,17.15
2018-08-25T02:51:06.331Z,17.18
2018-08-25T02:52:06.317Z,17.19
2018-08-25T02:53:06.306Z,17.12
2018-08-25T02:54:06.286Z,17.31
2018-08-25T02:55:06.271Z,17.28
2018-08-25T02:56:06.254Z,17.22
2018-08-25T02:57:06.240Z,17.30
2018-08-25T02:58:06.237Z,17.34
2018-08-25T02:59:06.213Z,17.21
2018-08-25T03:00:06.198Z,17.31
2018-08-25T03:01:06.181Z,17.26
2018-08-25T03:02:06.166Z,17.34
2018-08-25T03:03:06.150Z,17.33
2018-08-25T03:04:06.133Z,17.31
2018-08-25T03:05:06.117Z,17.33
2018-08-25T03:06:06.105Z,17.23
2018-08-25T03:07:06.088Z,17.26
2018-08-25T03:08:06.081Z,17.15
2018-08-25T03:09:06.060Z,17.14
2018-08-25T03:10:06.042Z,17.11
2018-08-25T03:11:06.026Z,17.12
2018-08-25T03:12:06.019Z,17.12
2018-08-25T03:13:05.995Z,17.00
2018-08-25T03:14:05.981Z,17.06
2018-08-25T03:15:05.964Z,16.96
2018-08-25T03:16:05.950Z,17.04
2018-08-25T03:17:05.933Z,16.98
2018-08-25T03:18:05.917Z,17.07
2018-08-25T03:19:05.901Z,17.11
2018-08-25T03:20:05.897Z,17.07
2018-08-25T03:21:05.877Z,17.18
2018-08-25T03:22:05.854Z,17.21
2018-08-25T03:23:05.838Z,17.19
2018-08-25T03:24:05.822Z,17.21
2018-08-25T03:25:05.809Z,17.19
2018-08-25T03:26:05.794Z,17.15
2018-08-25T03:27:05.777Z,17.19
2018-08-25T03:28:05.761Z,17.11
2018-08-25T03:29:05.745Z,17.08
2018-08-25T03:30:05.732Z,17.14
2018-08-25T03:31:05.715Z,17.15
2018-08-25T03:32:05.700Z,17.12
2018-08-25T03:33:05.699Z,17.11
2018-08-25T03:34:05.669Z,16.94
2018-08-25T03:35:05.652Z,16.97
2018-08-25T03:36:05.637Z,16.93
2018-08-25T03:37:05.623Z,16.97
2018-08-25T03:38:05.606Z,16.93
2018-08-25T03:39:05.591Z,16.98
2018-08-25T03:40:05.576Z,16.94
2018-08-25T03:41:05.562Z,16.94
2018-08-25T03:42:05.548Z,16.94
2018-08-25T03:43:05.528Z,17.00
2018-08-25T03:44:05.514Z,17.00
2018-08-25T03:45:05.500Z,16.94
2018-08-25T03:46:05.484Z,17.00
2018-08-25T03:47:05.468Z,16.97
2018-08-25T03:48:05.451Z,17.00
2018-08-25T03:49:05.437Z,16.93
2018-08-25T03:50:05.425Z,16.96
2018-08-25T03:51:05.405Z,16.97
2018-08-25T03:52:05.390Z,16.82
2018-08-25T03:53:05.372Z,16.96
2018-08-25T03:54:05.362Z,16.89
2018-08-25T03:55:05.343Z,16.89
2018-08-25T03:56:05.326Z,16.81
2018-08-25T03:57:05.312Z,16.67
2018-08-25T03:58:05.295Z,16.73
2018-08-25T03:59:05.280Z,16.76
2018-08-25T04:00:05.268Z,16.68
2018-08-25T04:01:05.253Z,16.76
2018-08-25T04:02:05.233Z,16.86
2018-08-25T04:03:05.216Z,16.86
2018-08-25T04:04:05.205Z,16.82
2018-08-25T04:05:05.186Z,16.79
2018-08-25T04:06:05.174Z,16.75
2018-08-25T04:07:05.157Z,16.75
2018-08-25T04:08:05.138Z,16.75
2018-08-25T04:09:05.126Z,16.73
2018-08-25T04:10:05.107Z,16.71
2018-08-25T04:11:05.090Z,16.63
2018-08-25T04:12:05.076Z,16.68
2018-08-25T04:13:05.062Z,16.63
2018-08-25T04:14:05.047Z,16.63
2018-08-25T04:15:05.030Z,16.56
2018-08-25T04:16:05.016Z,16.49
2018-08-25T04:17:04.998Z,16.41
2018-08-25T04:18:04.983Z,16.46
2018-08-25T04:19:04.966Z,16.45
2018-08-25T04:20:04.952Z,16.28
2018-08-25T04:21:04.939Z,16.43
2018-08-25T04:22:04.945Z,16.53
2018-08-25T04:23:04.904Z,16.43
2018-08-25T04:24:04.890Z,16.42
2018-08-25T04:25:04.874Z,16.39
2018-08-25T04:26:04.859Z,16.50
2018-08-25T04:27:04.840Z,16.53
2018-08-25T04:28:04.825Z,16.64
2018-08-25T04:29:04.809Z,16.66
2018-08-25T04:30:04.793Z,16.70
2018-08-25T04:31:04.777Z,16.79
2018-08-25T04:32:04.764Z,16.75
2018-08-25T04:33:04.747Z,16.66
2018-08-25T04:34:04.731Z,16.78
2018-08-25T04:35:04.714Z,16.81
2018-08-25T04:36:04.699Z,16.76
2018-08-25T04:37:04.685Z,16.83
2018-08-25T04:38:04.669Z,16.82
2018-08-25T04:39:04.651Z,16.91
2018-08-25T04:40:04.637Z,17.00
2018-08-25T04:41:04.632Z,17.00
2018-08-25T04:42:04.605Z,16.96
2018-08-25T04:43:04.587Z,17.04
2018-08-25T04:44:04.573Z,17.08
2018-08-25T04:45:04.561Z,17.18
2018-08-25T04:46:04.541Z,17.15
2018-08-25T04:47:04.525Z,17.15
2018-08-25T04:48:04.510Z,17.19
2018-08-25T04:49:04.495Z,17.19
2018-08-25T04:50:04.478Z,17.16
2018-08-25T04:51:04.462Z,17.16
2018-08-25T04:52:04.446Z,17.15
2018-08-25T04:53:04.431Z,17.12
2018-08-25T04:54:04.413Z,17.06
2018-08-25T04:55:04.405Z,17.15
2018-08-25T04:56:04.391Z,17.12
2018-08-25T04:57:04.370Z,17.12
2018-08-25T04:58:04.357Z,17.16
2018-08-25T04:59:04.340Z,17.14
2018-08-25T05:00:04.320Z,17.16
2018-08-25T05:01:04.303Z,17.16
2018-08-25T05:02:04.360Z,17.15
2018-08-25T05:03:04.277Z,17.12
2018-08-25T05:04:04.258Z,17.08
2018-08-25T05:05:04.248Z,17.04
2018-08-25T05:06:04.227Z,17.04
2018-08-25T05:07:04.216Z,17.12
2018-08-25T05:08:04.195Z,17.11
2018-08-25T05:09:04.179Z,16.96
2018-08-25T05:10:04.163Z,16.98
2018-08-25T05:11:04.147Z,16.88
2018-08-25T05:12:04.133Z,16.81
2018-08-25T05:13:04.116Z,16.68
2018-08-25T05:14:04.101Z,16.64
2018-08-25T05:15:04.084Z,16.48
2018-08-25T05:16:04.069Z,16.41
2018-08-25T05:17:04.056Z,16.50
2018-08-25T05:18:04.037Z,16.24
2018-08-25T05:19:04.023Z,16.23
2018-08-25T05:20:04.005Z,16.14
2018-08-25T05:21:03.990Z,16.09
2018-08-25T05:22:04.086Z,16.09
2018-08-25T05:23:03.956Z,16.17
2018-08-25T05:24:03.948Z,16.15
2018-08-25T05:25:03.927Z,16.14
2018-08-25T05:26:03.911Z,16.17
2018-08-25T05:27:03.900Z,16.05
2018-08-25T05:28:03.882Z,16.05
2018-08-25T05:29:03.867Z,16.12
2018-08-25T05:30:03.851Z,16.12
2018-08-25T05:31:03.835Z,16.24
2018-08-25T05:32:03.818Z,16.27
2018-08-25T05:33:03.810Z,16.39
2018-08-25T05:34:03.786Z,16.45
2018-08-25T05:35:03.770Z,16.50
2018-08-25T05:36:03.752Z,16.66
2018-08-25T05:37:03.737Z,16.60
2018-08-25T05:38:03.722Z,16.75
2018-08-25T05:39:03.707Z,16.76
2018-08-25T05:40:03.689Z,16.83
2018-08-25T05:41:03.674Z,16.88
2018-08-25T05:42:03.664Z,16.96
2018-08-25T05:43:03.640Z,16.98
2018-08-25T05:44:03.634Z,17.08
2018-08-25T05:45:03.611Z,17.11
2018-08-25T05:46:03.594Z,17.18
2018-08-25T05:47:03.577Z,17.11
2018-08-25T05:48:03.561Z,17.26
2018-08-25T05:49:03.547Z,17.34
2018-08-25T05:50:03.534Z,17.36
2018-08-25T05:51:03.515Z,17.40
2018-08-25T05:52:03.499Z,17.54
2018-08-25T05:53:03.484Z,17.56
2018-08-25T05:54:03.472Z,17.56
2018-08-25T05:55:03.451Z,17.59
2018-08-25T05:56:03.437Z,17.68
2018-08-25T05:57:03.419Z,17.59
2018-08-25T05:58:03.404Z,17.66
2018-08-25T05:59:03.388Z,17.72
2018-08-25T06:00:03.372Z,17.66
2018-08-25T06:01:03.356Z,17.82
2018-08-25T06:02:03.343Z,17.87
2018-08-25T06:03:03.326Z,17.84
2018-08-25T06:04:03.309Z,17.93
2018-08-25T06:05:03.296Z,18.00
2018-08-25T06:06:03.324Z,18.05
2018-08-25T06:07:03.274Z,18.10
2018-08-25T06:08:03.254Z,18.11
2018-08-25T06:09:03.234Z,18.12
2018-08-25T06:10:03.218Z,18.29
2018-08-25T06:11:03.202Z,18.32
2018-08-25T06:12:03.189Z,18.39
2018-08-25T06:13:03.172Z,18.36
2018-08-25T06:14:03.158Z,18.41
2018-08-25T06:15:03.142Z,18.35
2018-08-25T06:16:03.128Z,18.36
2018-08-25T06:17:03.111Z,18.35
2018-08-25T06:18:03.097Z,18.35
2018-08-25T06:19:03.101Z,18.30
2018-08-25T06:20:03.066Z,18.39
2018-08-25T06:21:03.052Z,18.44
2018-08-25T06:22:03.038Z,18.54
2018-08-25T06:23:03.019Z,18.55
2018-08-25T06:24:03.004Z,18.70
2018-08-25T06:25:02.991Z,18.65
2018-08-25T06:26:02.976Z,18.73
2018-08-25T06:27:02.958Z,18.69
2018-08-25T06:28:02.945Z,18.67
2018-08-25T06:29:02.930Z,18.69
2018-08-25T06:30:02.920Z,18.81
2018-08-25T06:31:02.900Z,18.90
2018-08-25T06:32:02.894Z,18.98
2018-08-25T06:33:02.872Z,18.85
2018-08-25T06:34:02.862Z,18.88
2018-08-25T06:35:02.840Z,18.82
2018-08-25T06:36:02.839Z,18.88
2018-08-25T06:37:02.814Z,18.87
2018-08-25T06:38:02.800Z,18.80
2018-08-25T06:39:02.786Z,18.75
2018-08-25T06:40:02.772Z,18.82
2018-08-25T06:41:02.756Z,18.82
2018-08-25T06:42:02.742Z,18.84
2018-08-25T06:43:02.724Z,18.81
2018-08-25T06:44:02.709Z,18.84
2018-08-25T06:45:02.696Z,18.87
2018-08-25T06:46:02.682Z,18.82
2018-08-25T06:47:02.666Z,18.90
2018-08-25T06:48:02.658Z,18.78
2018-08-25T06:49:02.636Z,18.76
2018-08-25T06:50:02.621Z,18.75
2018-08-25T06:51:02.607Z,18.73
2018-08-25T06:52:02.595Z,18.69
2018-08-25T06:53:02.578Z,18.76
2018-08-25T06:54:02.565Z,18.82
2018-08-25T06:55:02.548Z,18.87
2018-08-25T06:56:02.533Z,18.94
2018-08-25T06:57:02.521Z,19.02
2018-08-25T06:58:02.507Z,19.13
2018-08-25T06:59:02.489Z,19.19
2018-08-25T07:00:02.486Z,19.26
2018-08-25T07:01:02.466Z,19.41
2018-08-25T07:02:02.447Z,19.36
2018-08-25T07:03:02.433Z,19.44
2018-08-25T07:04:02.421Z,19.31
2018-08-25T07:05:02.404Z,19.44
2018-08-25T07:06:02.458Z,19.48
2018-08-25T07:07:02.378Z,19.51
2018-08-25T07:08:02.361Z,19.58
2018-08-25T07:09:02.348Z,19.55
2018-08-25T07:10:02.335Z,19.44
2018-08-25T07:11:02.319Z,19.44
2018-08-25T07:12:02.310Z,19.31
2018-08-25T07:13:02.366Z,19.40
2018-08-25T07:14:02.278Z,19.36
2018-08-25T07:15:02.266Z,19.29
2018-08-25T07:16:02.251Z,19.25
2018-08-25T07:17:02.232Z,19.33
2018-08-25T07:18:02.221Z,19.37
2018-08-25T07:19:02.277Z,19.26
2018-08-25T07:20:02.196Z,19.39
2018-08-25T07:21:02.177Z,19.33
2018-08-25T07:22:02.164Z,19.37
2018-08-25T07:23:02.153Z,19.37
2018-08-25T07:24:02.136Z,19.32
2018-08-25T07:25:02.126Z,19.37
2018-08-25T07:26:02.124Z,19.36
2018-08-25T07:27:02.095Z,19.26
2018-08-25T07:28:02.082Z,19.29
2018-08-25T07:29:02.070Z,19.33
2018-08-25T07:30:02.090Z,19.48
2018-08-25T07:31:02.041Z,19.46
2018-08-25T07:32:02.035Z,19.47
2018-08-25T07:33:02.013Z,19.48
2018-08-25T07:34:02.005Z,19.46
2018-08-25T07:35:01.988Z,19.51
2018-08-25T07:36:01.970Z,19.55
2018-08-25T07:37:01.963Z,19.46
2018-08-25T07:38:01.941Z,19.51
2018-08-25T07:39:01.933Z,19.59
2018-08-25T07:40:01.920Z,19.48
2018-08-25T07:41:01.901Z,19.56
2018-08-25T07:42:01.888Z,19.48
2018-08-25T07:43:01.877Z,19.44
2018-08-25T07:44:01.860Z,19.46
2018-08-25T07:45:01.852Z,19.43
2018-08-25T07:46:01.836Z,19.46
2018-08-25T07:47:01.818Z,19.44
2018-08-25T07:48:01.805Z,19.55
2018-08-25T07:49:01.794Z,19.58
2018-08-25T07:50:01.781Z,19.47
2018-08-25T07:51:01.783Z,19.44
2018-08-25T07:52:01.777Z,19.50
2018-08-25T07:53:01.736Z,19.61
2018-08-25T07:54:01.721Z,19.50
2018-08-25T07:55:01.711Z,19.51
2018-08-25T07:56:01.696Z,19.56
2018-08-25T07:57:01.684Z,19.71
2018-08-25T07:58:01.706Z,19.73
2018-08-25T07:59:01.665Z,20.06
2018-08-25T08:00:01.648Z,20.29
2018-08-25T08:01:01.630Z,20.31
2018-08-25T08:02:01.612Z,20.29
2018-08-25T08:03:01.601Z,20.38
2018-08-25T08:04:01.583Z,20.38
2018-08-25T08:05:01.575Z,20.43
2018-08-25T08:06:01.562Z,20.36
2018-08-25T08:07:01.548Z,20.64
2018-08-25T08:08:01.531Z,20.85
2018-08-25T08:09:01.518Z,21.16
2018-08-25T08:10:01.503Z,21.65
2018-08-25T08:11:01.489Z,21.75
2018-08-25T08:12:01.555Z,21.99
2018-08-25T08:13:01.477Z,22.20
2018-08-25T08:14:01.453Z,22.60
2018-08-25T08:15:01.440Z,22.97
2018-08-25T08:16:01.426Z,23.15
2018-08-25T08:17:01.420Z,23.28
2018-08-25T08:18:01.404Z,23.43
2018-08-25T08:19:01.398Z,23.69
2018-08-25T08:20:01.375Z,23.93
2018-08-25T08:21:01.362Z,24.05
2018-08-25T08:22:01.353Z,24.10
2018-08-25T08:23:01.340Z,24.30
2018-08-25T08:24:01.327Z,24.06
2018-08-25T08:25:01.319Z,23.91
2018-08-25T08:26:01.306Z,23.98
2018-08-25T08:27:01.292Z,23.85
2018-08-25T08:28:01.283Z,23.54
2018-08-25T08:29:01.270Z,23.36
2018-08-25T08:30:01.257Z,23.16
2018-08-25T08:31:01.251Z,22.92
2018-08-25T08:32:01.236Z,22.73
2018-08-25T08:33:01.293Z,22.72
2018-08-25T08:34:01.212Z,22.79
2018-08-25T08:35:01.199Z,22.86
2018-08-25T08:36:01.193Z,23.23
2018-08-25T08:37:01.178Z,23.42
2018-08-25T08:38:01.170Z,23.46
2018-08-25T08:39:01.155Z,23.55
2018-08-25T08:40:01.151Z,23.65
2018-08-25T08:41:01.135Z,23.79
2018-08-25T08:42:01.126Z,24.03
2018-08-25T08:43:01.111Z,24.24
2018-08-25T08:44:01.101Z,24.95
2018-08-25T08:45:01.098Z,25.40
2018-08-25T08:46:01.081Z,25.98
2018-08-25T08:47:01.065Z,26.37
2018-08-25T08:48:01.060Z,26.99
2018-08-25T08:49:01.054Z,27.43
2018-08-25T08:50:01.082Z,27.88
2018-08-25T08:51:01.026Z,28.21
2018-08-25T08:52:01.015Z,28.40
2018-08-25T08:53:01.007Z,28.70
2018-08-25T08:54:01.000Z,29.06
2018-08-25T08:55:01.003Z,29.11
2018-08-25T08:56:00.986Z,29.09
2018-08-25T08:57:00.972Z,29.31
2018-08-25T08:58:00.958Z,29.48
2018-08-25T08:59:00.950Z,29.76
2018-08-25T09:00:00.944Z,29.89
2018-08-25T09:01:00.933Z,29.60
2018-08-25T09:02:00.925Z,29.57
2018-08-25T09:03:00.915Z,29.87
2018-08-25T09:04:00.909Z,30.16
2018-08-25T09:05:00.904Z,30.43
2018-08-25T09:06:00.892Z,30.38
2018-08-25T09:07:00.889Z,30.57
2018-08-25T09:08:00.876Z,30.65
2018-08-25T09:09:00.872Z,30.64
2018-08-25T09:10:00.862Z,30.53
2018-08-25T09:11:00.860Z,30.43
2018-08-25T09:12:00.849Z,30.54
2018-08-25T09:13:00.843Z,30.62
2018-08-25T09:14:00.837Z,30.60
2018-08-25T09:15:00.826Z,30.54
2018-08-25T09:16:00.824Z,30.16
2018-08-25T09:17:00.815Z,29.87
2018-08-25T09:18:00.809Z,29.60
2018-08-25T09:19:00.801Z,28.86
2018-08-25T09:20:00.804Z,28.39
2018-08-25T09:21:00.789Z,28.52
2018-08-25T09:22:00.782Z,28.56
2018-08-25T09:23:00.775Z,28.86
2018-08-25T09:24:00.767Z,29.09
2018-08-25T09:25:00.763Z,29.05
2018-08-25T09:26:00.756Z,28.98
2018-08-25T09:27:00.751Z,28.98
2018-08-25T09:28:00.747Z,29.05
2018-08-25T09:29:00.743Z,29.15
2018-08-25T09:30:00.736Z,29.28
2018-08-25T09:31:00.727Z,29.30
2018-08-25T09:32:00.720Z,29.19
2018-08-25T09:33:00.715Z,29.26
2018-08-25T09:34:00.710Z,29.39
2018-08-25T09:35:00.703Z,29.73
2018-08-25T09:36:00.877Z,30.02
2018-08-25T09:37:00.996Z,30.23
2018-08-25T09:38:00.693Z,30.46
2018-08-25T09:39:00.681Z,30.35
2018-08-25T09:40:00.682Z,30.37
2018-08-25T09:41:00.670Z,30.22
2018-08-25T09:42:00.667Z,30.32
2018-08-25T09:43:00.659Z,30.39
2018-08-25T09:44:00.657Z,30.53
2018-08-25T09:45:00.652Z,30.42
2018-08-25T09:46:00.645Z,30.54
2018-08-25T09:47:00.715Z,30.53
2018-08-25T09:48:00.643Z,30.29
2018-08-25T09:49:00.633Z,30.10
2018-08-25T09:50:00.626Z,30.01
2018-08-25T09:51:00.620Z,29.87
2018-08-25T09:52:00.614Z,29.51
2018-08-25T09:53:00.618Z,29.12
2018-08-25T09:54:00.604Z,29.02
2018-08-25T09:55:00.599Z,28.83
2018-08-25T09:57:00.592Z,28.41
2018-08-25T09:58:00.585Z,28.24
2018-08-25T10:00:00.572Z,27.81
2018-08-25T10:01:00.567Z,27.70
2018-08-25T10:02:00.764Z,27.66
2018-08-25T10:03:00.556Z,27.65
2018-08-25T10:04:00.549Z,27.69
2018-08-25T10:05:00.548Z,27.57
2018-08-25T10:06:00.545Z,27.43
2018-08-25T10:07:00.535Z,27.39
2018-08-25T10:08:00.528Z,27.24
2018-08-25T10:09:00.521Z,27.17
2018-08-25T10:10:00.515Z,27.18
2018-08-25T10:11:00.543Z,27.13
2018-08-25T10:12:00.502Z,27.13
2018-08-25T10:13:00.499Z,27.19
2018-08-25T10:14:00.489Z,27.17
2018-08-25T10:15:00.485Z,27.18
2018-08-25T10:16:00.474Z,26.99
2018-08-25T10:17:00.545Z,26.89
2018-08-25T10:18:00.462Z,26.89
2018-08-25T10:19:00.459Z,26.75
2018-08-25T10:20:00.498Z,26.77
2018-08-25T10:21:00.445Z,26.73
2018-08-25T10:22:00.439Z,26.75
2018-08-25T10:23:00.492Z,26.76
2018-08-25T10:24:00.431Z,26.81
2018-08-25T10:25:00.415Z,26.84
2018-08-25T10:26:00.409Z,26.69
2018-08-25T10:27:00.402Z,26.66
2018-08-25T10:28:00.397Z,26.60
2018-08-25T10:29:00.466Z,26.45
2018-08-25T10:30:00.389Z,26.55
2018-08-25T10:31:00.375Z,26.47
2018-08-25T10:32:00.369Z,26.39
2018-08-25T10:33:00.362Z,26.36
2018-08-25T10:34:00.356Z,26.28
2018-08-25T10:35:00.343Z,26.12
2018-08-25T10:36:00.344Z,26.01
2018-08-25T10:37:00.330Z,26.01
2018-08-25T10:38:00.323Z,25.94
2018-08-25T10:39:00.314Z,25.82
2018-08-25T10:40:00.308Z,25.80
2018-08-25T10:41:00.301Z,25.73
2018-08-25T10:42:00.347Z,25.90
2018-08-25T10:43:00.287Z,26.05
2018-08-25T10:44:00.277Z,26.12
2018-08-25T10:45:00.279Z,26.01
2018-08-25T10:46:00.266Z,25.94
2018-08-25T10:47:00.254Z,25.82
2018-08-25T10:48:00.258Z,25.88
2018-08-25T10:49:00.239Z,26.18
2018-08-25T10:50:00.232Z,26.80
2018-08-25T10:51:00.223Z,27.31
2018-08-25T10:52:00.221Z,27.69
2018-08-25T10:53:00.211Z,27.78
2018-08-25T10:54:00.320Z,27.63
2018-08-25T10:55:00.195Z,27.49
2018-08-25T10:56:00.192Z,27.19
2018-08-25T10:57:00.189Z,26.99
2018-08-25T10:58:00.174Z,26.97
2018-08-25T10:59:00.177Z,26.73
2018-08-25T11:00:00.196Z,26.48
2018-08-25T11:01:00.333Z,26.23
2018-08-25T11:02:00.146Z,25.87
2018-08-25T11:03:00.140Z,25.75
2018-08-25T11:04:00.129Z,25.57
2018-08-25T11:05:00.124Z,25.55
2018-08-25T11:06:00.117Z,25.35
2018-08-25T11:07:00.108Z,25.08
2018-08-25T11:08:00.102Z,24.93
2018-08-25T11:09:00.118Z,24.76
2018-08-25T11:10:00.088Z,24.49
2018-08-25T11:11:00.080Z,24.30
2018-08-25T11:12:00.068Z,24.27
2018-08-25T11:13:00.061Z,24.16
2018-08-25T11:14:00.055Z,24.00
2018-08-25T11:15:00.048Z,23.98
2018-08-25T11:16:00.036Z,23.88
2018-08-25T11:17:00.030Z,23.75
2018-08-25T11:18:00.021Z,23.66
2018-08-25T11:19:00.010Z,23.57
2018-08-25T11:20:00.011Z,23.51
2018-08-25T11:20:59.993Z,23.57
2018-08-25T11:21:59.987Z,23.57
2018-08-25T11:22:59.982Z,23.65
2018-08-25T11:23:59.966Z,23.73
2018-08-25T11:24:59.957Z,23.76
2018-08-25T11:25:59.949Z,23.83
2018-08-25T11:26:59.941Z,23.91
2018-08-25T11:27:59.931Z,23.93
2018-08-25T11:28:59.926Z,24.06
2018-08-25T11:29:59.914Z,24.03
2018-08-25T11:30:59.914Z,24.12
2018-08-25T11:31:59.895Z,24.10
2018-08-25T11:32:59.885Z,24.45
2018-08-25T11:33:59.880Z,24.83
2018-08-25T11:34:59.867Z,24.98
2018-08-25T11:35:59.861Z,25.14
2018-08-25T11:36:59.849Z,25.33
2018-08-25T11:37:59.858Z,25.35
2018-08-25T11:38:59.832Z,25.32
2018-08-25T11:39:59.826Z,25.80
2018-08-25T11:40:59.820Z,26.13
2018-08-25T11:41:59.808Z,26.37
2018-08-25T11:42:59.799Z,26.58
2018-08-25T11:43:59.840Z,26.48
2018-08-25T11:44:59.783Z,26.07
2018-08-25T11:45:59.774Z,26.20
2018-08-25T11:46:59.767Z,26.33
2018-08-25T11:47:59.756Z,26.54
2018-08-25T11:48:59.750Z,26.87
2018-08-25T11:49:59.743Z,27.04
2018-08-25T11:50:59.735Z,27.39
2018-08-25T11:51:59.728Z,27.44
2018-08-25T11:52:59.721Z,27.59
2018-08-25T11:53:59.761Z,27.81
2018-08-25T11:54:59.705Z,27.84
2018-08-25T11:55:59.701Z,27.88
2018-08-25T11:56:59.696Z,27.77
2018-08-25T11:57:59.689Z,27.62
2018-08-25T11:58:59.683Z,27.50
2018-08-25T11:59:59.672Z,27.41
2018-08-25T12:00:59.716Z,27.17
2018-08-25T12:01:59.655Z,27.13
2018-08-25T12:02:59.647Z,27.18
2018-08-25T12:03:59.649Z,27.21
2018-08-25T12:04:59.636Z,27.36
2018-08-25T12:05:59.628Z,27.31
2018-08-25T12:06:59.624Z,27.27
2018-08-25T12:07:59.619Z,27.27
2018-08-25T12:08:59.605Z,27.09
2018-08-25T12:09:59.599Z,27.06
2018-08-25T12:10:59.592Z,26.92
2018-08-25T12:11:59.590Z,26.95
2018-08-25T12:12:59.577Z,26.94
2018-08-25T12:13:59.569Z,26.85
2018-08-25T12:14:59.562Z,26.65
2018-08-25T12:15:59.558Z,26.58
2018-08-25T12:16:59.551Z,26.47
2018-08-25T12:17:59.545Z,26.50
2018-08-25T12:18:59.536Z,26.66
2018-08-25T12:19:59.529Z,26.63
2018-08-25T12:20:59.524Z,26.37
2018-08-25T12:21:59.517Z,26.17
2018-08-25T12:22:59.508Z,26.02
2018-08-25T12:23:59.555Z,25.92
2018-08-25T12:24:59.496Z,25.94
2018-08-25T12:25:59.485Z,25.85
2018-08-25T12:26:59.478Z,25.69
2018-08-25T12:27:59.478Z,25.54
2018-08-25T12:28:59.463Z,25.35
2018-08-25T12:29:59.457Z,25.27
2018-08-25T12:30:59.449Z,25.17
2018-08-25T12:31:59.446Z,25.10
2018-08-25T12:32:59.432Z,25.13
2018-08-25T12:33:59.425Z,24.84
2018-08-25T12:34:59.416Z,24.83
2018-08-25T12:35:59.412Z,24.64
2018-08-25T12:36:59.410Z,24.76
2018-08-25T12:37:59.395Z,24.71
2018-08-25T12:38:59.437Z,24.80
2018-08-25T12:39:59.381Z,24.71
2018-08-25T12:40:59.374Z,24.64
2018-08-25T12:41:59.361Z,24.65
2018-08-25T12:42:59.363Z,24.52
2018-08-25T12:43:59.345Z,24.52
2018-08-25T12:44:59.388Z,24.47
2018-08-25T12:45:59.328Z,24.27
2018-08-25T12:46:59.318Z,24.18
2018-08-25T12:47:59.315Z,24.12
2018-08-25T12:48:59.301Z,24.06
2018-08-25T12:49:59.293Z,24.09
2018-08-25T12:50:59.283Z,23.98
2018-08-25T12:51:59.277Z,24.10
2018-08-25T12:52:59.265Z,24.05
2018-08-25T12:53:59.265Z,24.08
2018-08-25T12:54:59.245Z,23.83